Terminal Aerodrome Forecast
Issued by NWS Albany, NY

Home | Current Version | Previous Version | Text Only | Print | Product List | Glossary On
Versions: 1 2 3 4 5 6 7 8 9 10 11 12 13 14 15 16 17 18 19 20 21 22
000
FTUS41 KALY 301956 AAC
TAFALB
TAF AMD
KALB 301956Z 3020/3118 29010G15KT P6SM FEW030 SCT060 BKN250
     FM310000 25004KT P6SM SCT050
     FM310900 VRB03KT 5SM BR SCT010
     FM311100 28009G15KT P6SM SCT025 BKN050=

USA.gov is the U.S. government's official web portal to all federal, state and local government web resources and services.